Time;durP1;ratioP1;P1;durP2;ratioP2;P2;SDS_P1;SDS_P2;PMS_P1;PMS_P2;Temp;Humidity;BMP_temperature;BMP_pressure;BME280_temperature;BME280_humidity;BME280_pressure;Samples;Min_cycle;Max_cycle;Signal;HPM_P1;HPM_P2
2020/12/17 00:00:19;;;;;;;7.80;6.53;;;;;;;;;;5052093;28;20549;-50
2020/12/17 00:02:45;;;;;;;10.63;6.87;;;;;;;;;;5051945;28;20397;-49
2020/12/17 00:05:11;;;;;;;5.90;5.30;;;;;;;;;;5052176;28;20405;-50
2020/12/17 00:07:38;;;;;;;11.30;6.23;;;;;;;;;;5052058;28;20417;-50
2020/12/17 00:10:05;;;;;;;7.23;5.30;;;;;;;;;;5054024;28;20463;-51
2020/12/17 00:12:34;;;;;;;6.20;5.60;;;;;;;;;;5071186;28;20856;-49
2020/12/17 00:15:00;;;;;;;6.67;5.70;;;;;;;;;;5056892;28;20459;-51
2020/12/17 00:17:26;;;;;;;6.00;5.40;;;;;;;;;;5052028;28;20427;-50
2020/12/17 00:19:52;;;;;;;7.83;5.10;;;;;;;;;;5051829;28;20492;-51
2020/12/17 00:22:18;;;;;;;5.90;4.93;;;;;;;;;;5051595;28;20463;-51
2020/12/17 00:24:44;;;;;;;6.30;5.70;;;;;;;;;;5051716;28;20412;-54
2020/12/17 00:27:10;;;;;;;6.80;6.07;;;;;;;;;;5051748;28;20500;-48
2020/12/17 00:29:36;;;;;;;10.27;5.70;;;;;;;;;;5051571;28;20405;-49
2020/12/17 00:32:02;;;;;;;6.97;5.60;;;;;;;;;;5051414;28;20476;-50
2020/12/17 00:34:28;;;;;;;6.40;5.80;;;;;;;;;;5051484;28;20764;-49
2020/12/17 00:36:54;;;;;;;5.90;5.30;;;;;;;;;;5057897;28;20429;-49
2020/12/17 00:39:20;;;;;;;6.70;5.10;;;;;;;;;;5071436;28;20483;-50
2020/12/17 00:41:47;;;;;;;6.47;5.30;;;;;;;;;;5057239;28;20982;-51
2020/12/17 00:44:13;;;;;;;8.90;4.80;;;;;;;;;;5051407;28;20397;-50
2020/12/17 00:46:39;;;;;;;10.23;5.50;;;;;;;;;;5051234;28;20475;-49
2020/12/17 00:49:05;;;;;;;6.90;4.63;;;;;;;;;;5051393;28;20405;-50
2020/12/17 00:51:31;;;;;;;5.63;5.00;;;;;;;;;;5050899;28;20852;-49
2020/12/17 00:53:57;;;;;;;10.50;5.50;;;;;;;;;;5050673;28;20912;-49
2020/12/17 00:56:23;;;;;;;8.43;4.87;;;;;;;;;;5051050;28;20404;-50
2020/12/17 00:58:49;;;;;;;5.30;4.80;;;;;;;;;;5051089;28;20877;-49
2020/12/17 01:01:15;;;;;;;7.63;4.80;;;;;;;;;;5049760;28;20421;-50
2020/12/17 01:03:41;;;;;;;5.70;5.10;;;;;;;;;;5051006;28;20492;-50
2020/12/17 01:06:08;;;;;;;4.63;4.23;;;;;;;;;;5050972;28;20911;-50
2020/12/17 01:08:34;;;;;;;6.33;4.90;;;;;;;;;;5050993;28;20457;-50
2020/12/17 01:11:01;;;;;;;7.23;4.80;;;;;;;;;;5050530;28;20465;-49
2020/12/17 01:13:27;;;;;;;10.10;5.40;;;;;;;;;;5050834;28;20402;-51
2020/12/17 01:15:53;;;;;;;6.40;5.50;;;;;;;;;;5050909;28;20908;-50
2020/12/17 01:18:19;;;;;;;7.70;6.30;;;;;;;;;;5050890;28;20475;-52
2020/12/17 01:20:45;;;;;;;9.67;5.20;;;;;;;;;;5050743;28;20413;-52
2020/12/17 01:23:11;;;;;;;5.10;4.60;;;;;;;;;;5050945;28;20424;-49
2020/12/17 01:25:37;;;;;;;6.90;6.20;;;;;;;;;;5050833;28;20407;-50
2020/12/17 01:28:03;;;;;;;7.10;5.40;;;;;;;;;;5050765;28;20429;-49
2020/12/17 01:30:29;;;;;;;6.20;5.60;;;;;;;;;;5050713;28;20518;-49
2020/12/17 01:32:55;;;;;;;6.03;5.23;;;;;;;;;;5050859;28;20402;-50
2020/12/17 01:35:21;;;;;;;5.67;4.93;;;;;;;;;;5051060;28;20771;-50
2020/12/17 01:37:47;;;;;;;6.70;5.07;;;;;;;;;;5050905;28;20776;-49
2020/12/17 01:40:13;;;;;;;5.87;5.17;;;;;;;;;;5050905;28;20406;-49
2020/12/17 01:42:39;;;;;;;5.37;4.87;;;;;;;;;;5050681;28;20433;-50
2020/12/17 01:45:05;;;;;;;6.37;5.33;;;;;;;;;;5050903;28;20445;-50
2020/12/17 01:47:39;;;;;;;8.07;5.03;;;;;;;;;;5050555;28;20770;-49
2020/12/17 01:50:06;;;;;;;10.20;5.47;;;;;;;;;;5050589;28;20519;-50
2020/12/17 01:52:32;;;;;;;7.20;5.07;;;;;;;;;;5050395;28;20912;-52
2020/12/17 01:54:59;;;;;;;6.40;5.37;;;;;;;;;;5050509;28;20406;-50
2020/12/17 01:57:30;;;;;;;7.70;5.23;;;;;;;;;;5050297;28;20957;-52
2020/12/17 01:59:56;;;;;;;8.50;5.07;;;;;;;;;;5050583;28;20403;-49
2020/12/17 02:02:23;;;;;;;4.30;3.90;;;;;;;;;;5049592;28;20404;-49
2020/12/17 02:04:49;;;;;;;8.30;5.17;;;;;;;;;;5052512;28;20451;-50
2020/12/17 02:07:15;;;;;;;5.80;4.47;;;;;;;;;;5055197;28;20461;-52
2020/12/17 02:09:41;;;;;;;9.97;5.30;;;;;;;;;;5054444;28;20502;-52
2020/12/17 02:12:08;;;;;;;4.60;4.20;;;;;;;;;;5067073;28;20451;-52
2020/12/17 02:14:33;;;;;;;5.80;4.80;;;;;;;;;;5074133;28;20534;-52
2020/12/17 02:16:59;;;;;;;4.77;4.27;;;;;;;;;;5074733;28;20533;-52
2020/12/17 02:19:25;;;;;;;9.80;4.97;;;;;;;;;;5074145;28;20409;-51
2020/12/17 02:21:51;;;;;;;7.10;4.30;;;;;;;;;;5073855;28;20409;-52
2020/12/17 02:24:19;;;;;;;5.33;4.93;;;;;;;;;;5074014;28;20415;-51
2020/12/17 02:26:45;;;;;;;6.60;4.50;;;;;;;;;;5074030;28;20761;-51
2020/12/17 02:29:11;;;;;;;5.73;4.07;;;;;;;;;;5073960;28;20430;-51
2020/12/17 02:31:38;;;;;;;5.33;4.83;;;;;;;;;;5073654;28;20563;-51
2020/12/17 02:34:04;;;;;;;5.90;4.50;;;;;;;;;;5073866;28;20397;-51
2020/12/17 02:36:30;;;;;;;6.20;4.23;;;;;;;;;;5073773;28;20443;-51
2020/12/17 02:38:56;;;;;;;4.80;4.40;;;;;;;;;;5073774;28;20870;-51
2020/12/17 02:41:21;;;;;;;4.63;3.93;;;;;;;;;;5067613;28;20466;-51
2020/12/17 02:43:47;;;;;;;6.33;4.70;;;;;;;;;;5053816;28;20460;-51
2020/12/17 02:46:13;;;;;;;4.97;4.20;;;;;;;;;;5053637;28;20412;-51
2020/12/17 02:48:39;;;;;;;4.70;4.17;;;;;;;;;;5053611;28;20756;-51
2020/12/17 02:51:05;;;;;;;4.60;4.20;;;;;;;;;;5053384;28;20480;-51
2020/12/17 02:53:31;;;;;;;4.40;4.00;;;;;;;;;;5053639;28;20400;-51
2020/12/17 02:55:57;;;;;;;10.50;5.40;;;;;;;;;;5053485;28;20399;-52
2020/12/17 02:58:23;;;;;;;6.30;4.13;;;;;;;;;;5053327;28;20528;-52
2020/12/17 03:00:49;;;;;;;8.80;4.43;;;;;;;;;;5053290;28;20409;-51
2020/12/17 03:03:15;;;;;;;5.10;4.00;;;;;;;;;;5053267;28;20410;-51
2020/12/17 03:05:41;;;;;;;4.67;4.03;;;;;;;;;;5053311;28;20775;-52
2020/12/17 03:08:07;;;;;;;5.20;4.07;;;;;;;;;;5053380;28;20417;-51
2020/12/17 03:10:33;;;;;;;6.83;4.33;;;;;;;;;;5055770;28;21059;-51
2020/12/17 03:12:59;;;;;;;4.60;4.03;;;;;;;;;;5073125;28;20404;-51
2020/12/17 03:15:25;;;;;;;5.20;4.70;;;;;;;;;;5072572;28;20412;-51
2020/12/17 03:17:51;;;;;;;5.93;5.20;;;;;;;;;;5073112;28;20424;-51
2020/12/17 03:20:17;;;;;;;6.33;4.53;;;;;;;;;;5073155;28;20417;-51
2020/12/17 03:22:43;;;;;;;4.83;4.27;;;;;;;;;;5073024;28;20441;-51
2020/12/17 03:25:10;;;;;;;4.97;4.47;;;;;;;;;;5073356;28;20417;-51
2020/12/17 03:27:36;;;;;;;6.13;4.10;;;;;;;;;;5073119;28;20454;-51
2020/12/17 03:30:06;;;;;;;5.13;4.63;;;;;;;;;;5073188;28;21022;-52
2020/12/17 03:32:32;;;;;;;4.77;3.77;;;;;;;;;;5072641;28;20407;-52
2020/12/17 03:34:58;;;;;;;5.80;5.20;;;;;;;;;;5072832;28;20755;-52
2020/12/17 03:37:24;;;;;;;4.63;4.17;;;;;;;;;;5072658;28;20429;-52
2020/12/17 03:39:50;;;;;;;5.20;4.50;;;;;;;;;;5072700;28;20405;-52
2020/12/17 03:42:17;;;;;;;6.33;4.87;;;;;;;;;;5056585;28;20433;-52
2020/12/17 03:44:54;;;;;;;4.60;4.00;;;;;;;;;;5052536;28;20402;-51
2020/12/17 03:47:20;;;;;;;5.37;4.87;;;;;;;;;;5051547;28;20425;-52
2020/12/17 03:49:46;;;;;;;5.40;4.40;;;;;;;;;;5052485;28;20407;-52
2020/12/17 03:52:12;;;;;;;6.20;4.40;;;;;;;;;;5052514;28;20451;-52
2020/12/17 03:54:38;;;;;;;4.77;4.23;;;;;;;;;;5052491;28;21051;-52
2020/12/17 03:57:04;;;;;;;6.43;4.40;;;;;;;;;;5052139;28;20443;-51
2020/12/17 03:59:31;;;;;;;7.17;4.53;;;;;;;;;;5052367;28;20405;-51
2020/12/17 04:01:57;;;;;;;5.10;4.60;;;;;;;;;;5051953;28;20611;-51
2020/12/17 04:04:23;;;;;;;5.20;4.50;;;;;;;;;;5052319;28;20930;-52
2020/12/17 04:06:49;;;;;;;7.30;4.30;;;;;;;;;;5052223;28;20924;-53
2020/12/17 04:09:15;;;;;;;6.40;4.57;;;;;;;;;;5052161;28;20769;-52
2020/12/17 04:11:40;;;;;;;5.00;4.60;;;;;;;;;;5065766;28;20455;-52
2020/12/17 04:14:06;;;;;;;5.20;4.23;;;;;;;;;;5071988;28;20871;-52
2020/12/17 04:16:32;;;;;;;5.70;4.87;;;;;;;;;;5071835;28;20448;-52
2020/12/17 04:18:58;;;;;;;4.53;4.13;;;;;;;;;;5070841;28;20428;-52
2020/12/17 04:21:24;;;;;;;5.33;4.83;;;;;;;;;;5071654;28;20797;-52
2020/12/17 04:23:50;;;;;;;7.30;4.83;;;;;;;;;;5071784;28;20402;-53
2020/12/17 04:26:17;;;;;;;5.87;5.27;;;;;;;;;;5062053;28;20843;-52
2020/12/17 04:28:43;;;;;;;5.73;5.23;;;;;;;;;;5050889;28;20431;-52
2020/12/17 04:31:09;;;;;;;6.30;5.10;;;;;;;;;;5051619;28;21174;-52
2020/12/17 04:33:34;;;;;;;7.47;5.70;;;;;;;;;;5051449;28;20405;-52
2020/12/17 04:36:01;;;;;;;5.33;4.93;;;;;;;;;;5051657;28;20401;-52
2020/12/17 04:38:27;;;;;;;6.37;5.17;;;;;;;;;;5051482;28;20449;-52
2020/12/17 04:40:53;;;;;;;9.47;4.80;;;;;;;;;;5051499;28;20406;-52
2020/12/17 04:43:19;;;;;;;8.27;5.33;;;;;;;;;;5051424;28;20406;-53
2020/12/17 04:45:45;;;;;;;5.27;4.77;;;;;;;;;;5051426;28;20405;-52
2020/12/17 04:48:12;;;;;;;6.17;4.67;;;;;;;;;;5051279;28;20936;-52
2020/12/17 04:50:39;;;;;;;6.67;4.70;;;;;;;;;;5051167;28;20453;-52
2020/12/17 04:53:05;;;;;;;6.10;4.80;;;;;;;;;;5051231;28;20841;-53
2020/12/17 04:55:31;;;;;;;5.60;4.50;;;;;;;;;;5051215;28;20961;-52
2020/12/17 04:57:58;;;;;;;5.23;4.70;;;;;;;;;;5051117;28;20438;-52
2020/12/17 05:00:24;;;;;;;6.83;4.40;;;;;;;;;;5051050;28;20405;-51
2020/12/17 05:02:54;;;;;;;9.30;4.50;;;;;;;;;;5051027;28;20920;-52
2020/12/17 05:05:20;;;;;;;6.27;5.10;;;;;;;;;;5051170;28;20401;-53
2020/12/17 05:07:46;;;;;;;6.13;4.77;;;;;;;;;;5051158;28;20425;-52
2020/12/17 05:10:12;;;;;;;8.50;5.17;;;;;;;;;;5051413;28;20445;-53
2020/12/17 05:12:38;;;;;;;5.87;5.27;;;;;;;;;;5050589;28;20897;-51
2020/12/17 05:15:05;;;;;;;5.87;5.10;;;;;;;;;;5051311;28;20408;-51
2020/12/17 05:17:31;;;;;;;9.17;5.23;;;;;;;;;;5051194;28;20430;-51
2020/12/17 05:19:58;;;;;;;14.40;5.50;;;;;;;;;;5051091;28;20450;-51
2020/12/17 05:22:24;;;;;;;6.13;4.87;;;;;;;;;;5050698;28;20479;-51
2020/12/17 05:24:50;;;;;;;6.67;4.70;;;;;;;;;;5050842;28;20397;-51
2020/12/17 05:27:16;;;;;;;5.70;4.87;;;;;;;;;;5050934;28;20794;-51
2020/12/17 05:29:42;;;;;;;6.07;5.13;;;;;;;;;;5050774;28;20766;-51
2020/12/17 05:32:09;;;;;;;9.00;5.10;;;;;;;;;;5050492;28;20396;-51
2020/12/17 05:34:35;;;;;;;4.67;4.20;;;;;;;;;;5050767;28;20499;-51
2020/12/17 05:37:01;;;;;;;7.93;5.30;;;;;;;;;;5050562;28;20423;-51
2020/12/17 05:39:28;;;;;;;6.90;4.97;;;;;;;;;;5050635;28;20856;-51
2020/12/17 05:41:54;;;;;;;7.33;5.50;;;;;;;;;;5050383;28;20434;-51
2020/12/17 05:44:28;;;;;;;6.10;5.60;;;;;;;;;;5050284;28;20487;-51
2020/12/17 05:46:54;;;;;;;9.13;5.17;;;;;;;;;;5050452;28;20433;-52
2020/12/17 05:49:24;;;;;;;5.73;5.17;;;;;;;;;;5050586;28;20406;-51
2020/12/17 05:51:51;;;;;;;6.00;5.40;;;;;;;;;;5050144;28;20465;-51
2020/12/17 05:54:21;;;;;;;8.67;5.53;;;;;;;;;;5050560;28;20920;-51
2020/12/17 05:56:48;;;;;;;5.60;5.10;;;;;;;;;;5050362;28;20445;-51
2020/12/17 05:59:21;;;;;;;8.83;5.90;;;;;;;;;;5050571;28;20405;-51
2020/12/17 06:01:48;;;;;;;14.03;6.07;;;;;;;;;;5050244;28;20455;-53
2020/12/17 06:04:14;;;;;;;7.70;5.30;;;;;;;;;;5050562;28;20406;-51
2020/12/17 06:06:44;;;;;;;9.90;5.70;;;;;;;;;;5050483;28;20433;-51
2020/12/17 06:09:18;;;;;;;9.13;5.60;;;;;;;;;;5050426;28;20414;-51
2020/12/17 06:11:44;;;;;;;9.40;5.40;;;;;;;;;;5051656;28;20471;-51
2020/12/17 06:14:11;;;;;;;5.90;5.33;;;;;;;;;;5069382;28;20506;-50
2020/12/17 06:16:39;;;;;;;8.60;5.70;;;;;;;;;;5070270;28;20400;-51
2020/12/17 06:19:05;;;;;;;6.50;5.37;;;;;;;;;;5070297;28;20855;-51
2020/12/17 06:21:31;;;;;;;5.37;4.70;;;;;;;;;;5070097;28;20832;-50
2020/12/17 06:23:58;;;;;;;5.47;4.97;;;;;;;;;;5070185;28;20896;-52
2020/12/17 06:26:24;;;;;;;8.40;6.00;;;;;;;;;;5070090;28;20404;-51
2020/12/17 06:28:51;;;;;;;7.83;6.90;;;;;;;;;;5070114;28;20459;-52
2020/12/17 06:31:19;;;;;;;6.90;5.87;;;;;;;;;;5069988;28;20447;-51
2020/12/17 06:33:46;;;;;;;5.93;5.40;;;;;;;;;;5053166;28;20425;-52
2020/12/17 06:36:32;;;;;;;6.73;5.80;;;;;;;;;;5050208;28;20406;-52
2020/12/17 06:39:04;;;;;;;8.53;5.97;;;;;;;;;;5042815;28;20413;-52
2020/12/17 06:41:30;;;;;;;8.57;6.77;;;;;;;;;;5049978;28;20423;-52
2020/12/17 06:43:57;;;;;;;7.03;6.33;;;;;;;;;;5050262;28;20523;-50
2020/12/17 06:46:29;;;;;;;7.30;6.60;;;;;;;;;;5050156;28;20501;-51
2020/12/17 06:48:55;;;;;;;7.10;6.33;;;;;;;;;;5050177;28;20919;-51
2020/12/17 06:51:30;;;;;;;9.23;6.67;;;;;;;;;;5051464;28;20518;-51
2020/12/17 06:53:56;;;;;;;7.90;6.43;;;;;;;;;;5053745;28;20428;-51
2020/12/17 06:56:22;;;;;;;10.13;6.93;;;;;;;;;;5053553;28;20482;-51
2020/12/17 06:58:48;;;;;;;9.90;7.73;;;;;;;;;;5053613;28;20439;-50
2020/12/17 07:01:25;;;;;;;14.60;7.80;;;;;;;;;;5053704;28;20402;-51
2020/12/17 07:03:51;;;;;;;7.30;6.60;;;;;;;;;;5053161;28;20495;-50
2020/12/17 07:06:24;;;;;;;10.20;7.40;;;;;;;;;;5053654;28;20405;-50
2020/12/17 07:08:51;;;;;;;10.97;7.40;;;;;;;;;;5053489;28;20909;-51
2020/12/17 07:11:34;;;;;;;9.30;7.10;;;;;;;;;;5056468;28;20510;-49
2020/12/17 07:14:00;;;;;;;13.43;8.70;;;;;;;;;;5083319;28;20415;-49
2020/12/17 07:16:27;;;;;;;13.27;9.10;;;;;;;;;;5091795;28;20410;-49
2020/12/17 07:19:13;;;;;;;12.43;8.47;;;;;;;;;;5073247;28;20392;-49
2020/12/17 07:21:41;;;;;;;12.20;9.13;;;;;;;;;;5050235;28;20445;-50
2020/12/17 07:24:21;;;;;;;10.50;9.00;;;;;;;;;;5068990;28;21017;-49
2020/12/17 07:26:48;;;;;;;12.60;9.73;;;;;;;;;;5054114;28;20433;-50
2020/12/17 07:29:14;;;;;;;18.93;10.47;;;;;;;;;;5053426;28;20432;-51
2020/12/17 07:31:40;;;;;;;13.90;10.33;;;;;;;;;;5067923;28;20466;-51
2020/12/17 07:34:16;;;;;;;11.93;9.30;;;;;;;;;;5061633;28;20911;-50
2020/12/17 07:36:46;;;;;;;11.77;8.87;;;;;;;;;;5052689;28;20417;-51
2020/12/17 07:39:12;;;;;;;19.57;9.37;;;;;;;;;;5063197;28;20422;-51
2020/12/17 07:41:38;;;;;;;15.30;9.57;;;;;;;;;;5070303;28;20435;-50
2020/12/17 07:44:04;;;;;;;14.17;8.87;;;;;;;;;;5064902;28;20428;-51
2020/12/17 07:46:34;;;;;;;10.53;9.40;;;;;;;;;;5071566;28;20405;-51
2020/12/17 07:49:02;;;;;;;12.03;9.70;;;;;;;;;;5080713;28;20436;-49
2020/12/17 07:51:29;;;;;;;15.70;9.80;;;;;;;;;;5058947;28;20465;-49
2020/12/17 07:54:02;;;;;;;12.80;9.10;;;;;;;;;;5067509;28;20459;-51
2020/12/17 07:56:29;;;;;;;10.93;8.77;;;;;;;;;;5043796;28;20418;-51
2020/12/17 07:58:55;;;;;;;13.90;10.00;;;;;;;;;;5071633;28;21101;-49
2020/12/17 08:01:21;;;;;;;11.70;9.60;;;;;;;;;;5071156;28;20517;-50
2020/12/17 08:03:51;;;;;;;10.97;9.70;;;;;;;;;;5066052;28;20527;-50
2020/12/17 08:06:18;;;;;;;13.63;10.00;;;;;;;;;;5070016;28;20760;-50
2020/12/17 08:08:44;;;;;;;17.23;10.07;;;;;;;;;;5053201;28;20499;-51
2020/12/17 08:11:11;;;;;;;14.37;11.27;;;;;;;;;;5054925;28;20448;-51
2020/12/17 08:13:37;;;;;;;14.00;10.27;;;;;;;;;;5051371;28;20760;-51
2020/12/17 08:16:04;;;;;;;17.43;10.70;;;;;;;;;;5051471;28;20977;-51
2020/12/17 08:18:31;;;;;;;17.53;11.57;;;;;;;;;;5071079;28;20434;-51
2020/12/17 08:21:17;;;;;;;12.97;11.00;;;;;;;;;;5071718;28;20411;-50
2020/12/17 08:23:45;;;;;;;17.63;11.53;;;;;;;;;;5067844;28;20927;-50
2020/12/17 08:26:12;;;;;;;12.77;10.20;;;;;;;;;;5071696;28;20880;-50
2020/12/17 08:28:41;;;;;;;13.03;10.23;;;;;;;;;;5071496;28;20930;-49
2020/12/17 08:31:11;;;;;;;15.57;9.67;;;;;;;;;;5071417;28;20979;-49
2020/12/17 08:33:42;;;;;;;20.07;9.50;;;;;;;;;;5059142;28;20434;-51
2020/12/17 08:36:09;;;;;;;15.53;8.93;;;;;;;;;;5051539;28;20412;-49
2020/12/17 08:38:35;;;;;;;11.63;8.07;;;;;;;;;;5051344;28;20424;-50
2020/12/17 08:41:02;;;;;;;10.50;7.90;;;;;;;;;;5052261;28;20405;-51
2020/12/17 08:43:32;;;;;;;8.60;7.23;;;;;;;;;;5071238;28;20400;-49
2020/12/17 08:45:59;;;;;;;10.30;7.63;;;;;;;;;;5070114;28;20423;-49
2020/12/17 08:48:26;;;;;;;8.10;6.93;;;;;;;;;;5071185;28;20455;-48
2020/12/17 08:50:53;;;;;;;9.90;7.40;;;;;;;;;;5070986;28;20459;-50
2020/12/17 08:53:20;;;;;;;8.50;6.83;;;;;;;;;;5071115;28;20844;-51
2020/12/17 08:56:00;;;;;;;7.80;7.03;;;;;;;;;;5071265;28;20400;-48
2020/12/17 08:58:26;;;;;;;14.50;6.87;;;;;;;;;;5071236;28;20797;-53
2020/12/17 09:00:52;;;;;;;7.70;6.90;;;;;;;;;;5064352;28;20522;-53
2020/12/17 09:03:19;;;;;;;10.07;6.60;;;;;;;;;;5063093;28;20458;-53
2020/12/17 09:06:00;;;;;;;10.13;6.57;;;;;;;;;;5068376;28;20466;-48
2020/12/17 09:08:25;;;;;;;8.07;6.20;;;;;;;;;;5064049;28;20424;-48
2020/12/17 09:10:51;;;;;;;8.50;6.63;;;;;;;;;;5070699;28;20463;-47
2020/12/17 09:13:19;;;;;;;7.10;6.40;;;;;;;;;;5070074;28;20396;-49
2020/12/17 09:15:45;;;;;;;11.10;6.80;;;;;;;;;;5065724;28;20856;-49
2020/12/17 09:18:11;;;;;;;11.40;6.60;;;;;;;;;;5069468;28;20435;-49
2020/12/17 09:20:37;;;;;;;7.40;6.50;;;;;;;;;;5069167;28;20817;-50
2020/12/17 09:23:10;;;;;;;7.03;6.33;;;;;;;;;;5065562;28;20425;-50
2020/12/17 09:25:36;;;;;;;9.77;6.00;;;;;;;;;;5069552;28;20411;-51
2020/12/17 09:28:02;;;;;;;7.33;5.43;;;;;;;;;;5052438;28;20515;-50
2020/12/17 09:30:32;;;;;;;6.23;5.37;;;;;;;;;;5048777;28;20520;-51
2020/12/17 09:33:00;;;;;;;11.93;6.73;;;;;;;;;;5050191;28;20918;-51
2020/12/17 09:35:35;;;;;;;5.37;4.90;;;;;;;;;;5049824;28;20408;-51
2020/12/17 09:38:03;;;;;;;8.60;5.73;;;;;;;;;;5050600;28;20417;-51
2020/12/17 09:40:29;;;;;;;5.20;4.70;;;;;;;;;;5090274;28;20489;-52
2020/12/17 09:43:12;;;;;;;4.50;4.20;;;;;;;;;;5090429;28;20442;-52
2020/12/17 09:45:39;;;;;;;4.80;3.83;;;;;;;;;;5089762;28;20429;-52
2020/12/17 09:48:14;;;;;;;3.00;2.80;;;;;;;;;;5090702;28;20407;-51
2020/12/17 09:50:50;;;;;;;5.20;3.83;;;;;;;;;;5076242;28;20953;-51
2020/12/17 09:53:16;;;;;;;4.17;3.40;;;;;;;;;;5055879;28;20409;-52
2020/12/17 09:55:42;;;;;;;10.17;3.17;;;;;;;;;;5051267;28;20484;-50
2020/12/17 09:58:09;;;;;;;3.73;3.00;;;;;;;;;;5070385;28;20938;-51
2020/12/17 10:00:35;;;;;;;3.50;3.20;;;;;;;;;;5068851;28;20427;-51
2020/12/17 10:03:01;;;;;;;4.87;4.00;;;;;;;;;;5056281;28;20432;-52
2020/12/17 10:05:27;;;;;;;3.70;3.40;;;;;;;;;;5066286;28;20495;-52
2020/12/17 10:07:53;;;;;;;4.00;3.70;;;;;;;;;;5065827;28;20450;-53
2020/12/17 10:10:20;;;;;;;5.47;3.00;;;;;;;;;;5069284;28;20472;-52
2020/12/17 10:12:46;;;;;;;5.90;3.07;;;;;;;;;;5070038;28;20546;-52
2020/12/17 10:15:12;;;;;;;3.27;2.60;;;;;;;;;;5070310;28;20483;-52
2020/12/17 10:17:38;;;;;;;2.97;2.77;;;;;;;;;;5067730;28;20418;-52
2020/12/17 10:20:04;;;;;;;4.00;3.20;;;;;;;;;;5070078;28;20400;-51
2020/12/17 10:22:30;;;;;;;4.07;2.80;;;;;;;;;;5069764;28;20450;-51
2020/12/17 10:24:56;;;;;;;3.93;2.80;;;;;;;;;;5070185;28;20412;-52
2020/12/17 10:27:22;;;;;;;4.77;2.63;;;;;;;;;;5073374;28;20424;-52
2020/12/17 10:29:48;;;;;;;2.90;2.70;;;;;;;;;;5073875;28;20407;-52
2020/12/17 10:32:14;;;;;;;2.40;2.30;;;;;;;;;;5073588;28;20489;-52
2020/12/17 10:34:40;;;;;;;6.57;2.90;;;;;;;;;;5073778;28;20423;-51
2020/12/17 10:37:07;;;;;;;2.73;2.50;;;;;;;;;;5073702;28;20817;-52
2020/12/17 10:39:33;;;;;;;2.73;2.53;;;;;;;;;;5053799;28;20432;-51
2020/12/17 10:42:01;;;;;;;2.60;2.40;;;;;;;;;;5053517;28;20409;-51
2020/12/17 10:44:27;;;;;;;2.97;2.70;;;;;;;;;;5053545;28;20485;-52
2020/12/17 10:46:53;;;;;;;6.80;3.60;;;;;;;;;;5053617;28;20982;-51
2020/12/17 10:49:19;;;;;;;3.23;2.60;;;;;;;;;;5053569;28;20496;-52
2020/12/17 10:51:45;;;;;;;3.70;2.37;;;;;;;;;;5053245;28;20458;-52
2020/12/17 10:54:11;;;;;;;2.77;2.53;;;;;;;;;;5053446;28;20555;-51
2020/12/17 10:56:37;;;;;;;3.73;2.00;;;;;;;;;;5053122;28;20420;-52
2020/12/17 10:59:03;;;;;;;3.67;2.47;;;;;;;;;;5053457;28;20537;-52
2020/12/17 11:01:29;;;;;;;2.30;2.13;;;;;;;;;;5053178;28;20412;-52
2020/12/17 11:03:55;;;;;;;2.37;2.17;;;;;;;;;;5052714;28;20431;-52
2020/12/17 11:06:22;;;;;;;4.80;2.20;;;;;;;;;;5053155;28;20774;-52
2020/12/17 11:08:48;;;;;;;2.77;2.10;;;;;;;;;;5053207;28;20414;-52
2020/12/17 11:11:15;;;;;;;2.60;2.30;;;;;;;;;;5053069;28;20461;-51
2020/12/17 11:13:41;;;;;;;2.87;2.40;;;;;;;;;;5053143;28;20404;-51
2020/12/17 11:16:07;;;;;;;5.50;2.30;;;;;;;;;;5053044;28;20405;-52
2020/12/17 11:18:33;;;;;;;3.30;2.30;;;;;;;;;;5052960;28;20463;-52
2020/12/17 11:20:59;;;;;;;14.00;2.20;;;;;;;;;;5052938;28;20419;-53
2020/12/17 11:23:25;;;;;;;2.10;1.90;;;;;;;;;;5052826;28;20404;-51
2020/12/17 11:25:51;;;;;;;2.20;2.00;;;;;;;;;;5052990;28;20883;-52
2020/12/17 11:28:17;;;;;;;1.90;1.80;;;;;;;;;;5052727;28;20429;-52
2020/12/17 11:30:43;;;;;;;2.33;2.13;;;;;;;;;;5052690;28;20510;-52
2020/12/17 11:33:09;;;;;;;5.73;2.00;;;;;;;;;;5052550;28;20882;-53
2020/12/17 11:35:35;;;;;;;1.93;1.83;;;;;;;;;;5053497;28;20425;-53
2020/12/17 11:38:01;;;;;;;4.40;2.03;;;;;;;;;;5076287;28;20431;-52
2020/12/17 11:40:27;;;;;;;3.07;2.13;;;;;;;;;;5080255;28;20777;-52
2020/12/17 11:42:56;;;;;;;5.70;2.50;;;;;;;;;;5069689;28;20487;-52
2020/12/17 11:45:22;;;;;;;1.83;1.73;;;;;;;;;;5069992;28;20408;-52
2020/12/17 11:47:48;;;;;;;6.93;2.20;;;;;;;;;;5073159;28;20442;-52
2020/12/17 11:50:14;;;;;;;1.77;1.67;;;;;;;;;;5080762;28;20462;-53
2020/12/17 11:52:40;;;;;;;3.30;1.70;;;;;;;;;;5082289;28;20400;-52
2020/12/17 11:55:07;;;;;;;2.70;1.80;;;;;;;;;;5090668;28;20405;-51
2020/12/17 11:57:34;;;;;;;2.50;1.80;;;;;;;;;;5092343;28;20439;-53
2020/12/17 12:00:00;;;;;;;2.80;1.80;;;;;;;;;;5071085;28;20408;-51
2020/12/17 12:02:26;;;;;;;3.73;2.17;;;;;;;;;;5065521;28;20420;-51
2020/12/17 12:04:52;;;;;;;2.40;1.80;;;;;;;;;;5062695;28;20423;-51
2020/12/17 12:07:18;;;;;;;2.63;2.33;;;;;;;;;;5060680;28;20443;-51
2020/12/17 12:09:44;;;;;;;2.23;2.00;;;;;;;;;;5056461;28;20406;-51
2020/12/17 12:12:10;;;;;;;2.07;1.50;;;;;;;;;;5051951;28;20436;-51
2020/12/17 12:14:37;;;;;;;2.70;1.90;;;;;;;;;;5052255;28;20750;-51
2020/12/17 12:17:04;;;;;;;1.80;1.60;;;;;;;;;;5052011;28;20441;-52
2020/12/17 12:19:29;;;;;;;3.80;1.57;;;;;;;;;;5052640;28;20394;-51
2020/12/17 12:21:55;;;;;;;4.73;2.03;;;;;;;;;;5071699;28;20419;-52
2020/12/17 12:24:21;;;;;;;3.57;1.53;;;;;;;;;;5072046;28;20397;-52
2020/12/17 12:26:48;;;;;;;3.97;1.47;;;;;;;;;;5071813;28;20419;-51
2020/12/17 12:29:14;;;;;;;3.37;2.40;;;;;;;;;;5086335;28;20469;-53
2020/12/17 12:31:40;;;;;;;2.47;2.00;;;;;;;;;;5089486;28;20969;-53
2020/12/17 12:34:06;;;;;;;5.13;1.43;;;;;;;;;;5091163;28;20399;-52
2020/12/17 12:36:32;;;;;;;3.47;1.70;;;;;;;;;;5054661;28;20922;-51
2020/12/17 12:38:58;;;;;;;2.10;1.77;;;;;;;;;;5071202;28;20396;-53
2020/12/17 12:41:24;;;;;;;1.70;1.60;;;;;;;;;;5069465;28;20402;-53
2020/12/17 12:43:49;;;;;;;2.63;2.13;;;;;;;;;;5069218;28;20765;-51
2020/12/17 12:46:18;;;;;;;3.67;2.30;;;;;;;;;;5069295;28;20399;-52
2020/12/17 12:48:45;;;;;;;5.90;2.30;;;;;;;;;;5068597;28;20431;-52
2020/12/17 12:51:11;;;;;;;4.87;2.10;;;;;;;;;;5069416;28;20457;-52
2020/12/17 12:53:36;;;;;;;2.90;1.70;;;;;;;;;;5069497;28;20942;-52
2020/12/17 12:56:02;;;;;;;2.30;2.03;;;;;;;;;;5070494;28;20407;-53
2020/12/17 12:58:28;;;;;;;2.93;2.10;;;;;;;;;;5070925;28;20443;-53
2020/12/17 13:00:54;;;;;;;3.00;2.23;;;;;;;;;;5070734;28;20410;-52
2020/12/17 13:03:20;;;;;;;2.53;1.70;;;;;;;;;;5070819;28;20407;-51
2020/12/17 13:05:46;;;;;;;3.80;2.40;;;;;;;;;;5061702;28;21071;-52
2020/12/17 13:08:12;;;;;;;2.80;1.80;;;;;;;;;;5050903;28;20483;-52
2020/12/17 13:10:39;;;;;;;2.73;2.10;;;;;;;;;;5050838;28;20487;-51
2020/12/17 13:13:06;;;;;;;3.43;1.90;;;;;;;;;;5050719;28;20401;-53
2020/12/17 13:15:32;;;;;;;4.30;2.03;;;;;;;;;;5060644;28;20419;-52
2020/12/17 13:17:58;;;;;;;1.83;1.73;;;;;;;;;;5060839;28;20433;-52
2020/12/17 13:20:27;;;;;;;3.97;2.37;;;;;;;;;;5069150;28;20469;-51
2020/12/17 13:22:53;;;;;;;5.37;2.00;;;;;;;;;;5069487;28;20423;-52
2020/12/17 13:25:20;;;;;;;3.83;2.00;;;;;;;;;;5070254;28;20912;-50
2020/12/17 13:27:46;;;;;;;3.10;2.07;;;;;;;;;;5070332;28;20478;-53
2020/12/17 13:30:12;;;;;;;4.20;2.07;;;;;;;;;;5070447;28;20832;-52
2020/12/17 13:32:38;;;;;;;4.10;1.93;;;;;;;;;;5069500;28;20424;-52
2020/12/17 13:35:04;;;;;;;4.50;2.00;;;;;;;;;;5069253;28;20424;-50
2020/12/17 13:37:30;;;;;;;5.50;2.07;;;;;;;;;;5070417;28;20438;-50
2020/12/17 13:39:56;;;;;;;5.90;1.80;;;;;;;;;;5070548;28;20400;-50
2020/12/17 13:42:23;;;;;;;2.60;1.60;;;;;;;;;;5070425;28;20399;-50
2020/12/17 13:44:49;;;;;;;2.17;2.00;;;;;;;;;;5070528;28;20404;-50
2020/12/17 13:47:15;;;;;;;1.90;1.77;;;;;;;;;;5070574;28;20427;-50
2020/12/17 13:49:41;;;;;;;4.00;1.90;;;;;;;;;;5070555;28;20416;-50
2020/12/17 13:52:07;;;;;;;3.97;1.80;;;;;;;;;;5069991;28;20451;-50
2020/12/17 13:54:40;;;;;;;3.40;2.00;;;;;;;;;;5070584;28;20388;-50
2020/12/17 13:57:11;;;;;;;5.03;1.67;;;;;;;;;;5068927;28;20459;-53
2020/12/17 13:59:39;;;;;;;2.77;1.73;;;;;;;;;;5071348;28;20462;-51
2020/12/17 14:02:09;;;;;;;3.13;2.00;;;;;;;;;;5073281;28;20416;-51
2020/12/17 14:04:37;;;;;;;2.77;2.57;;;;;;;;;;5071566;28;20774;-52
2020/12/17 14:07:07;;;;;;;2.10;1.77;;;;;;;;;;5070749;28;20554;-52
2020/12/17 14:09:35;;;;;;;7.00;2.10;;;;;;;;;;5073095;28;20462;-51
2020/12/17 14:12:05;;;;;;;5.60;1.67;;;;;;;;;;5056306;28;20472;-51
2020/12/17 14:14:32;;;;;;;2.47;1.80;;;;;;;;;;5073117;28;20980;-53
2020/12/17 14:17:02;;;;;;;5.03;2.40;;;;;;;;;;5073546;28;20466;-50
2020/12/17 14:19:37;;;;;;;2.47;2.10;;;;;;;;;;5074620;28;20809;-51
2020/12/17 14:22:08;;;;;;;3.60;2.13;;;;;;;;;;5071401;28;20469;-50
2020/12/17 14:24:34;;;;;;;2.30;2.10;;;;;;;;;;5072998;28;20415;-50
2020/12/17 14:27:02;;;;;;;3.20;2.00;;;;;;;;;;5073993;28;20424;-50
2020/12/17 14:29:28;;;;;;;4.03;2.20;;;;;;;;;;5074067;28;20404;-50
2020/12/17 14:31:55;;;;;;;9.00;1.93;;;;;;;;;;5073493;28;20458;-50
2020/12/17 14:34:21;;;;;;;3.43;2.10;;;;;;;;;;5073987;28;20457;-50
2020/12/17 14:36:47;;;;;;;2.57;2.37;;;;;;;;;;5056859;28;20859;-50
2020/12/17 14:39:13;;;;;;;1.77;1.67;;;;;;;;;;5053774;28;20392;-50